Time;durP1;ratioP1;P1;durP2;ratioP2;P2;SDS_P1;SDS_P2;PMS_P1;PMS_P2;Temp;Humidity;BMP_temperature;BMP_pressure;BME280_temperature;BME280_humidity;BME280_pressure;Samples;Min_cycle;Max_cycle;Signal;HPM_P1;HPM_P2
2021/06/04 00:01:42;;;;;;;39.83;35.65;;;20.80;84.80;;;;;;5011031;28;20467;-79
2021/06/04 00:04:08;;;;;;;38.50;34.38;;;20.70;84.80;;;;;;5010242;28;20030;-79
2021/06/04 00:06:34;;;;;;;40.97;36.67;;;20.70;84.80;;;;;;4995101;28;20482;-81
2021/06/04 00:09:01;;;;;;;39.50;35.35;;;20.70;84.90;;;;;;5011388;28;20216;-80
2021/06/04 00:11:28;;;;;;;41.30;36.72;;;20.60;84.70;;;;;;5012331;28;20068;-80
2021/06/04 00:14:08;;;;;;;43.60;38.13;;;20.50;84.60;;;;;;5011105;28;20415;-79
2021/06/04 00:16:38;;;;;;;39.47;35.28;;;20.50;84.60;;;;;;5012535;28;20017;-79
2021/06/04 00:19:10;;;;;;;41.75;37.15;;;20.50;85.00;;;;;;5011411;28;20034;-79
2021/06/04 00:21:43;;;;;;;42.88;36.50;;;20.50;84.50;;;;;;5011288;28;20041;-79
2021/06/04 00:24:11;;;;;;;;;;;20.50;84.40;;;;;;5010333;28;20022;-79
2021/06/04 00:26:40;;;;;;;40.85;36.40;;;20.40;84.20;;;;;;5013262;28;20407;-79
2021/06/04 00:29:06;;;;;;;44.22;39.35;;;20.40;84.30;;;;;;5014416;28;20029;-79
2021/06/04 00:31:32;;;;;;;45.95;41.05;;;20.40;84.20;;;;;;5015862;28;20038;-79
2021/06/04 00:33:59;;;;;;;45.00;40.20;;;20.40;84.20;;;;;;5014313;28;20034;-79
2021/06/04 00:36:25;;;;;;;43.70;39.00;;;20.30;84.20;;;;;;5015228;28;20037;-79
2021/06/04 00:38:53;;;;;;;46.10;38.60;;;20.30;84.30;;;;;;5015106;28;20021;-79
2021/06/04 00:41:31;;;;;;;45.38;38.28;;;20.20;84.30;;;;;;5018012;28;20117;-80
2021/06/04 00:43:58;;;;;;;43.38;38.63;;;20.20;84.20;;;;;;5020237;28;20026;-79
2021/06/04 00:46:25;;;;;;;44.58;39.88;;;20.20;84.10;;;;;;5033939;28;20054;-79
2021/06/04 00:48:52;;;;;;;45.55;39.72;;;20.20;84.20;;;;;;5034890;28;20038;-79
2021/06/04 00:51:23;;;;;;;44.53;39.33;;;20.20;84.20;;;;;;5034830;28;20030;-79
2021/06/04 00:53:50;;;;;;;46.22;40.75;;;20.10;84.10;;;;;;5036559;28;20037;-80
2021/06/04 00:56:16;;;;;;;44.60;39.45;;;20.10;84.10;;;;;;5035827;28;20073;-81
2021/06/04 00:58:45;;;;;;;43.75;38.30;;;20.10;84.10;;;;;;5034402;28;20030;-80
2021/06/04 01:01:13;;;;;;;46.65;40.15;;;20.10;84.10;;;;;;5037620;28;20034;-78
2021/06/04 01:03:43;;;;;;;46.75;40.47;;;20.10;84.10;;;;;;5035441;28;20034;-78
2021/06/04 01:06:24;;;;;;;45.90;40.92;;;20.00;84.10;;;;;;5018186;28;20054;-78
2021/06/04 01:08:49;;;;;;;50.25;40.33;;;20.00;84.30;;;;;;5016081;28;20018;-79
2021/06/04 01:11:24;;;;;;;46.08;39.97;;;19.90;84.40;;;;;;5015692;28;20549;-79
2021/06/04 01:13:59;;;;;;;43.90;39.25;;;19.90;84.60;;;;;;5014519;28;20045;-81
2021/06/04 01:16:41;;;;;;;44.78;39.85;;;19.80;84.60;;;;;;5015298;28;20068;-78
2021/06/04 01:19:15;;;;;;;42.88;38.13;;;19.80;84.80;;;;;;5014965;28;20424;-79
2021/06/04 01:21:44;;;;;;;44.42;39.53;;;19.80;84.70;;;;;;5013946;28;20450;-79
2021/06/04 01:24:19;;;;;;;42.15;37.47;;;19.80;84.70;;;;;;5013178;28;20076;-79
2021/06/04 01:26:50;;;;;;;41.45;36.97;;;19.80;85.10;;;;;;5015358;28;20061;-79
2021/06/04 01:29:25;;;;;;;47.58;38.78;;;19.70;84.60;;;;;;5013211;28;20061;-79
2021/06/04 01:31:59;;;;;;;42.55;35.97;;;19.70;84.60;;;;;;5015384;28;20109;-80
2021/06/04 01:34:34;;;;;;;41.95;35.55;;;19.60;84.50;;;;;;5014743;28;20018;-79
2021/06/04 01:37:13;;;;;;;39.63;35.30;;;19.60;84.50;;;;;;5014658;28;20475;-79
2021/06/04 01:39:45;;;;;;;39.00;34.75;;;19.60;84.50;;;;;;5015088;28;20068;-78
2021/06/04 01:42:13;;;;;;;38.70;34.50;;;19.60;84.50;;;;;;5013964;28;20029;-79
2021/06/04 01:45:03;;;;;;;41.20;36.08;;;19.60;84.40;;;;;;5013271;28;20041;-79
2021/06/04 01:47:35;;;;;;;41.45;36.10;;;19.50;84.30;;;;;;5007722;28;20021;-80
2021/06/04 01:50:31;;;;;;;41.53;34.50;;;19.50;84.30;;;;;;5013251;28;20096;-80
2021/06/04 01:53:03;;;;;;;39.45;35.13;;;19.40;84.30;;;;;;5010456;28;20038;-79
2021/06/04 01:55:33;;;;;;;41.03;34.55;;;19.30;84.20;;;;;;5014669;28;20053;-79
2021/06/04 01:58:07;;;;;;;39.65;35.25;;;19.30;84.40;;;;;;5014461;28;20022;-79
2021/06/04 02:00:35;;;;;;;40.40;34.70;;;19.30;84.70;;;;;;5013093;28;20022;-77
2021/06/04 02:03:01;;;;;;;36.28;32.38;;;19.30;84.60;;;;;;5013235;28;20506;-78
2021/06/04 02:05:31;;;;;;;38.33;33.83;;;19.20;84.50;;;;;;5012523;28;20029;-78
2021/06/04 02:07:57;;;;;;;37.65;32.30;;;19.20;84.50;;;;;;5014698;28;20018;-79
2021/06/04 02:10:38;;;;;;;37.80;32.25;;;19.20;84.50;;;;;;5012257;28;20033;-79
2021/06/04 02:13:06;;;;;;;36.67;32.75;;;19.20;84.40;;;;;;5013620;28;20080;-79
2021/06/04 02:15:36;;;;;;;37.97;32.25;;;19.20;84.40;;;;;;4995603;28;20061;-78
2021/06/04 02:18:19;;;;;;;37.35;31.05;;;19.20;84.30;;;;;;5013160;28;20038;-78
2021/06/04 02:20:54;;;;;;;36.35;31.33;;;19.10;84.50;;;;;;5013262;28;20050;-78
2021/06/04 02:23:43;;;;;;;36.25;31.33;;;19.10;84.60;;;;;;5011910;28;20030;-79
2021/06/04 02:26:30;;;;;;;38.63;32.38;;;19.00;84.50;;;;;;5014149;28;20050;-80
2021/06/04 02:29:18;;;;;;;35.20;31.10;;;19.00;84.50;;;;;;5013490;28;20101;-78
2021/06/04 02:31:57;;;;;;;35.60;31.52;;;19.00;84.60;;;;;;5013944;28;20052;-78
2021/06/04 02:34:41;;;;;;;36.30;30.83;;;18.90;84.60;;;;;;5012938;28;20025;-79
2021/06/04 02:37:16;;;;;;;38.17;31.25;;;19.00;84.60;;;;;;5014350;28;20113;-80
2021/06/04 02:39:48;;;;;;;37.20;31.23;;;19.00;84.60;;;;;;5014119;28;20033;-79
2021/06/04 02:42:16;;;;;;;;;;;18.90;84.50;;;;;;5013846;28;20026;-79
2021/06/04 02:44:59;;;;;;;32.92;28.88;;;19.00;84.50;;;;;;5012867;28;19909;-80
2021/06/04 02:47:31;;;;;;;;;;;19.00;84.30;;;;;;5013347;28;20128;-80
2021/06/04 02:50:00;;;;;;;35.38;30.42;;;19.00;84.30;;;;;;5013596;28;20428;-79
2021/06/04 02:52:33;;;;;;;35.40;30.85;;;19.00;84.10;;;;;;5020516;28;20034;-79
2021/06/04 02:55:02;;;;;;;38.00;30.33;;;19.10;84.00;;;;;;5023515;28;20390;-79
2021/06/04 02:57:31;;;;;;;33.13;29.52;;;19.10;83.90;;;;;;5025858;28;20030;-79
2021/06/04 02:59:57;;;;;;;35.58;30.33;;;19.10;83.80;;;;;;5028758;28;20021;-80
2021/06/04 03:02:28;;;;;;;33.60;29.85;;;19.10;83.80;;;;;;5028072;28;20049;-80
2021/06/04 03:05:24;;;;;;;35.53;30.35;;;19.20;83.70;;;;;;5031900;28;20014;-79
2021/06/04 03:07:49;;;;;;;37.25;29.95;;;19.10;83.50;;;;;;5029940;28;20034;-78
2021/06/04 03:10:35;;;;;;;35.70;30.08;;;19.10;83.50;;;;;;5029965;28;20106;-79
2021/06/04 03:13:07;;;;;;;33.63;29.33;;;19.10;83.40;;;;;;4999216;28;20033;-79
2021/06/04 03:15:40;;;;;;;33.55;28.80;;;19.10;83.30;;;;;;5012409;28;20091;-80
2021/06/04 03:18:09;;;;;;;32.45;28.95;;;19.10;83.40;;;;;;5013250;28;20033;-80
2021/06/04 03:20:39;;;;;;;33.55;27.85;;;19.10;83.30;;;;;;5012090;28;20026;-80
2021/06/04 03:23:08;;;;;;;29.92;26.73;;;19.10;83.20;;;;;;5012778;28;20045;-79
2021/06/04 03:25:47;;;;;;;34.17;28.50;;;19.10;83.10;;;;;;5010286;28;20665;-80
2021/06/04 03:28:16;;;;;;;32.72;27.15;;;19.10;83.00;;;;;;5011111;28;20112;-80
2021/06/04 03:30:44;;;;;;;30.75;26.63;;;19.10;82.90;;;;;;5013219;28;20455;-80
2021/06/04 03:33:14;;;;;;;32.63;26.92;;;19.10;82.90;;;;;;5012861;28;20022;-80
2021/06/04 03:35:41;;;;;;;30.50;26.67;;;19.10;82.60;;;;;;5011949;28;20033;-80
2021/06/04 03:38:09;;;;;;;30.27;25.70;;;19.00;82.60;;;;;;5013010;28;20401;-80
2021/06/04 03:40:35;;;;;;;31.20;27.17;;;19.00;82.80;;;;;;5012274;28;20323;-80
2021/06/04 03:43:05;;;;;;;33.30;26.83;;;19.00;82.80;;;;;;5011408;28;20156;-79
2021/06/04 03:45:34;;;;;;;31.83;26.50;;;19.00;82.80;;;;;;5010727;28;20021;-80
2021/06/04 03:48:02;;;;;;;31.23;27.73;;;19.00;82.80;;;;;;5011230;28;20071;-79
2021/06/04 03:50:27;;;;;;;33.53;26.80;;;19.00;82.70;;;;;;5011577;28;20038;-79
2021/06/04 03:52:53;;;;;;;33.42;26.08;;;19.10;82.70;;;;;;5011489;28;20393;-79
2021/06/04 03:55:25;;;;;;;30.88;25.50;;;19.10;82.60;;;;;;5012031;28;20037;-79
2021/06/04 03:57:52;;;;;;;33.65;28.45;;;19.10;82.50;;;;;;5011389;28;20425;-79
2021/06/04 04:00:44;;;;;;;32.60;27.25;;;19.10;82.50;;;;;;5010594;28;20026;-79
2021/06/04 04:03:14;;;;;;;31.02;26.38;;;19.10;82.40;;;;;;5004521;28;20029;-78
2021/06/04 04:05:40;;;;;;;35.17;27.70;;;19.20;82.30;;;;;;5011383;28;20026;-79
2021/06/04 04:08:08;;;;;;;30.95;26.05;;;19.30;82.30;;;;;;5012326;28;20022;-79
2021/06/04 04:10:34;;;;;;;40.28;31.23;;;19.20;82.30;;;;;;5009895;28;20029;-80
2021/06/04 04:13:00;;;;;;;36.22;29.95;;;19.10;82.30;;;;;;5011870;28;20038;-79
2021/06/04 04:15:27;;;;;;;35.90;27.80;;;19.10;82.50;;;;;;5010254;28;20048;-80
2021/06/04 04:17:56;;;;;;;33.90;27.85;;;19.10;82.70;;;;;;5010847;28;20502;-80
2021/06/04 04:20:35;;;;;;;33.85;28.55;;;19.10;82.60;;;;;;5009877;28;20359;-80
2021/06/04 04:23:01;;;;;;;35.35;28.45;;;19.20;82.40;;;;;;5012432;28;20038;-80
2021/06/04 04:25:35;;;;;;;34.55;27.75;;;19.20;82.30;;;;;;5011160;28;20085;-80
2021/06/04 04:28:01;;;;;;;38.47;29.63;;;19.30;82.30;;;;;;5011885;28;20026;-80
2021/06/04 04:30:27;;;;;;;36.38;29.83;;;19.30;82.20;;;;;;5010978;28;20111;-80
2021/06/04 04:32:53;;;;;;;34.00;28.08;;;19.30;82.20;;;;;;5011845;28;20443;-80
2021/06/04 04:35:23;;;;;;;33.13;27.83;;;19.30;82.10;;;;;;5010684;28;20026;-79
2021/06/04 04:37:49;;;;;;;36.33;29.98;;;19.30;82.10;;;;;;5011495;28;20141;-78
2021/06/04 04:40:17;;;;;;;33.40;28.45;;;19.30;81.90;;;;;;4991046;28;20038;-78
2021/06/04 04:42:44;;;;;;;33.70;29.13;;;19.30;82.10;;;;;;4990204;28;20026;-78
2021/06/04 04:45:12;;;;;;;34.95;29.10;;;19.30;82.00;;;;;;4992442;28;20023;-79
2021/06/04 04:47:38;;;;;;;32.00;28.42;;;19.30;82.00;;;;;;4991256;28;20046;-78
2021/06/04 04:50:05;;;;;;;34.30;29.65;;;19.40;82.10;;;;;;4983171;28;20026;-79
2021/06/04 04:52:31;;;;;;;33.47;28.35;;;19.50;82.10;;;;;;5009540;28;20038;-79
2021/06/04 04:54:57;;;;;;;32.72;28.38;;;19.50;81.90;;;;;;5011034;28;20033;-79
2021/06/04 04:57:25;;;;;;;31.38;26.92;;;19.60;81.80;;;;;;5011378;28;20040;-81
2021/06/04 04:59:51;;;;;;;38.33;31.60;;;19.70;81.60;;;;;;5010390;28;20037;-78
2021/06/04 05:02:17;;;;;;;37.78;32.00;;;19.80;81.20;;;;;;5010472;28;20049;-79
2021/06/04 05:04:43;;;;;;;42.40;33.47;;;19.80;80.90;;;;;;5010899;28;20025;-79
2021/06/04 05:07:09;;;;;;;34.55;28.88;;;19.70;80.90;;;;;;5012243;28;20030;-79
2021/06/04 05:09:35;;;;;;;32.88;28.23;;;19.80;81.10;;;;;;5009515;28;20032;-79
2021/06/04 05:12:01;;;;;;;36.05;29.65;;;20.00;81.00;;;;;;4995272;28;20033;-80
2021/06/04 05:14:27;;;;;;;41.90;33.38;;;20.40;80.30;;;;;;5013501;28;20034;-79
2021/06/04 05:16:53;;;;;;;36.90;31.88;;;21.00;78.50;;;;;;4997465;28;20044;-77
2021/06/04 05:19:19;;;;;;;39.20;33.42;;;21.40;77.00;;;;;;5013652;28;20038;-79
2021/06/04 05:21:45;;;;;;;36.72;29.73;;;21.50;76.60;;;;;;5014597;28;20057;-79
2021/06/04 05:24:11;;;;;;;39.58;32.60;;;21.50;76.70;;;;;;5015715;28;20033;-78
2021/06/04 05:26:37;;;;;;;38.97;31.40;;;21.50;76.50;;;;;;5013007;28;20057;-78
2021/06/04 05:29:05;;;;;;;37.20;30.70;;;21.70;76.20;;;;;;5014319;28;20402;-78
2021/06/04 05:31:31;;;;;;;35.78;31.23;;;21.60;75.90;;;;;;5012932;28;20382;-79
2021/06/04 05:33:57;;;;;;;33.70;29.38;;;21.70;76.30;;;;;;5014057;28;20026;-78
2021/06/04 05:36:29;;;;;;;40.50;31.58;;;22.00;76.10;;;;;;5013184;28;20132;-78
2021/06/04 05:38:56;;;;;;;36.35;31.52;;;22.80;75.00;;;;;;5014900;28;20040;-79
2021/06/04 05:41:21;;;;;;;35.65;30.35;;;23.70;73.00;;;;;;5013975;28;20038;-77
2021/06/04 05:43:48;;;;;;;36.42;30.05;;;24.10;71.90;;;;;;5014077;28;20090;-77
2021/06/04 05:46:16;;;;;;;33.13;29.63;;;24.50;71.40;;;;;;4997254;28;20037;-78
2021/06/04 05:48:42;;;;;;;36.50;29.77;;;25.30;69.50;;;;;;5012789;28;20034;-79
2021/06/04 05:51:13;;;;;;;34.00;28.48;;;26.30;67.10;;;;;;5014804;28;20434;-79
2021/06/04 05:53:40;;;;;;;33.75;28.13;;;27.00;65.20;;;;;;5012531;28;20378;-78
2021/06/04 05:56:09;;;;;;;34.28;30.65;;;27.40;64.00;;;;;;4999380;28;20022;-78
2021/06/04 05:58:35;;;;;;;34.38;30.05;;;27.10;62.60;;;;;;5012803;28;20025;-78
2021/06/04 06:01:05;;;;;;;36.33;29.95;;;26.50;63.40;;;;;;5014158;28;20038;-78
2021/06/04 06:03:33;;;;;;;36.97;30.23;;;25.80;64.80;;;;;;5013612;28;20425;-79
2021/06/04 06:05:59;;;;;;;37.67;32.35;;;25.20;66.20;;;;;;5014025;28;20470;-77
2021/06/04 06:08:25;;;;;;;34.85;31.20;;;24.80;67.60;;;;;;5009879;28;20034;-77
2021/06/04 06:10:51;;;;;;;39.00;31.98;;;24.60;68.10;;;;;;4991170;28;20052;-77
2021/06/04 06:13:18;;;;;;;40.17;33.35;;;24.50;68.60;;;;;;5012456;28;20409;-77
2021/06/04 06:15:44;;;;;;;36.30;30.77;;;24.30;68.40;;;;;;5013247;28;20525;-79
2021/06/04 06:18:10;;;;;;;34.30;30.58;;;24.40;69.10;;;;;;5009159;28;20463;-78
2021/06/04 06:20:39;;;;;;;36.30;31.60;;;24.60;68.90;;;;;;5011439;28;20037;-78
2021/06/04 06:23:05;;;;;;;39.65;33.05;;;25.10;68.40;;;;;;5004473;28;20040;-78
2021/06/04 06:25:38;;;;;;;33.83;29.25;;;25.40;67.20;;;;;;5012099;28;20057;-79
2021/06/04 06:28:07;;;;;;;37.42;31.92;;;25.40;66.30;;;;;;5014052;28;20054;-78
2021/06/04 06:30:33;;;;;;;37.42;32.60;;;25.30;67.00;;;;;;5012999;28;20042;-79
2021/06/04 06:32:59;;;;;;;37.95;32.90;;;25.20;66.40;;;;;;5012067;28;20395;-77
2021/06/04 06:35:31;;;;;;;36.75;31.80;;;25.00;66.70;;;;;;5011290;28;20026;-79
2021/06/04 06:37:56;;;;;;;38.50;33.08;;;24.70;66.90;;;;;;5013200;28;20083;-78
2021/06/04 06:40:22;;;;;;;38.35;33.83;;;24.70;67.20;;;;;;5011661;28;20116;-78
2021/06/04 06:42:48;;;;;;;34.42;30.25;;;24.90;67.00;;;;;;5011168;28;20120;-76
2021/06/04 06:45:14;;;;;;;33.13;28.88;;;25.20;67.00;;;;;;5012265;28;20033;-76
2021/06/04 06:47:40;;;;;;;33.15;29.65;;;25.30;67.10;;;;;;5004331;28;20050;-77
2021/06/04 06:50:10;;;;;;;31.90;27.77;;;25.60;66.60;;;;;;5009246;28;20026;-76
2021/06/04 06:52:36;;;;;;;30.25;26.95;;;25.90;65.80;;;;;;5012407;28;20030;-79
2021/06/04 06:55:03;;;;;;;34.63;28.52;;;26.30;65.50;;;;;;5011311;28;20030;-76
2021/06/04 06:57:29;;;;;;;37.35;31.80;;;26.70;65.40;;;;;;5011015;28;20396;-76
2021/06/04 06:59:56;;;;;;;34.83;30.80;;;26.70;63.10;;;;;;4992654;28;20607;-75
2021/06/04 07:02:22;;;;;;;40.75;35.33;;;25.80;63.80;;;;;;5009872;28;20034;-75
2021/06/04 07:04:49;;;;;;;38.55;33.08;;;25.50;65.20;;;;;;5012353;28;20065;-76
2021/06/04 07:07:17;;;;;;;44.75;36.92;;;24.80;65.50;;;;;;5011781;28;20390;-75
2021/06/04 07:09:44;;;;;;;41.08;36.20;;;24.20;67.70;;;;;;5010428;28;20109;-76
2021/06/04 07:12:10;;;;;;;47.40;36.88;;;24.00;68.70;;;;;;5011866;28;20100;-75
2021/06/04 07:14:36;;;;;;;46.78;37.60;;;23.70;69.70;;;;;;5012816;28;20443;-75
2021/06/04 07:17:04;;;;;;;39.72;33.80;;;23.70;70.60;;;;;;5011223;28;20034;-77
2021/06/04 07:19:30;;;;;;;42.63;36.55;;;24.70;70.20;;;;;;5012711;28;20030;-76
2021/06/04 07:21:56;;;;;;;38.28;33.65;;;25.80;67.10;;;;;;4994379;28;20110;-77
2021/06/04 07:24:23;;;;;;;42.85;35.22;;;26.40;66.00;;;;;;5012949;28;20049;-77
2021/06/04 07:26:52;;;;;;;35.55;31.45;;;26.70;63.80;;;;;;4994313;28;20042;-77
2021/06/04 07:29:19;;;;;;;33.33;29.75;;;27.20;63.60;;;;;;5010909;28;20029;-78
2021/06/04 07:31:46;;;;;;;37.17;32.15;;;27.60;62.40;;;;;;5011554;28;20462;-77
2021/06/04 07:34:13;;;;;;;39.97;33.80;;;27.60;60.50;;;;;;5010826;28;20647;-77
2021/06/04 07:36:45;;;;;;;34.42;30.67;;;27.60;62.60;;;;;;5012026;28;20041;-79
2021/06/04 07:39:15;;;;;;;33.30;29.98;;;28.10;63.20;;;;;;5011734;28;20037;-76
2021/06/04 07:41:41;;;;;;;30.27;27.15;;;28.40;61.90;;;;;;5011940;28;20045;-77
2021/06/04 07:44:08;;;;;;;29.73;26.60;;;28.80;62.20;;;;;;4994676;28;20026;-77
2021/06/04 07:46:34;;;;;;;33.13;29.63;;;29.60;60.80;;;;;;5012266;28;20025;-77
2021/06/04 07:49:00;;;;;;;32.78;27.30;;;30.30;57.90;;;;;;5010022;28;20086;-77
2021/06/04 07:51:31;;;;;;;22.60;20.38;;;30.70;56.00;;;;;;5009711;28;20119;-77
2021/06/04 07:53:57;;;;;;;24.17;21.58;;;31.00;57.50;;;;;;5009496;28;20117;-76
2021/06/04 07:56:23;;;;;;;25.13;22.67;;;31.60;54.60;;;;;;5011448;28;20437;-76
2021/06/04 07:58:49;;;;;;;29.58;26.63;;;31.90;53.50;;;;;;5010284;28;20513;-77
2021/06/04 08:01:16;;;;;;;27.77;24.83;;;31.90;51.60;;;;;;5011238;28;20050;-75
2021/06/04 08:03:44;;;;;;;27.45;24.60;;;31.90;51.60;;;;;;5010649;28;20382;-78
2021/06/04 08:06:10;;;;;;;27.35;24.20;;;31.50;51.60;;;;;;5011962;28;20083;-75
2021/06/04 08:08:37;;;;;;;28.92;25.88;;;31.10;52.60;;;;;;5012064;28;20025;-75
2021/06/04 08:11:06;;;;;;;29.75;26.75;;;30.10;54.10;;;;;;5009603;28;20092;-76
2021/06/04 08:13:32;;;;;;;29.17;26.17;;;29.40;55.10;;;;;;5012395;28;20033;-76
2021/06/04 08:16:03;;;;;;;30.48;27.33;;;28.90;55.70;;;;;;5009885;28;20064;-76
2021/06/04 08:18:32;;;;;;;26.52;23.83;;;28.70;55.90;;;;;;5010275;28;20096;-76
2021/06/04 08:20:59;;;;;;;27.80;24.83;;;28.90;57.70;;;;;;5008092;28;20026;-76
2021/06/04 08:23:29;;;;;;;26.55;23.70;;;29.50;56.80;;;;;;5010800;28;20121;-78
2021/06/04 08:25:57;;;;;;;30.55;27.25;;;29.70;55.50;;;;;;5008036;28;20022;-77
2021/06/04 08:28:25;;;;;;;29.98;26.67;;;29.90;57.50;;;;;;5010843;28;20383;-77
2021/06/04 08:30:51;;;;;;;26.67;22.85;;;30.30;54.70;;;;;;5012086;28;20084;-76
2021/06/04 08:33:22;;;;;;;24.95;20.90;;;30.50;54.80;;;;;;5017402;28;20485;-79
2021/06/04 08:35:48;;;;;;;115.05;38.30;;;31.00;52.10;;;;;;5008935;28;20513;-81
2021/06/04 08:38:14;;;;;;;57.83;25.08;;;31.20;51.30;;;;;;4995285;28;20030;-79
2021/06/04 08:40:40;;;;;;;30.88;22.02;;;31.10;50.70;;;;;;5011146;28;20026;-79
2021/06/04 08:43:25;;;;;;;28.00;23.13;;;31.20;51.60;;;;;;5013109;28;20220;-79
2021/06/04 08:46:12;;;;;;;28.80;23.60;;;31.20;51.20;;;;;;5032218;28;20028;-81
2021/06/04 08:48:58;;;;;;;27.95;20.77;;;30.90;52.70;;;;;;5035928;28;20034;-80
2021/06/04 08:51:38;;;;;;;24.75;21.90;;;31.00;51.80;;;;;;5017601;28;20536;-80
2021/06/04 08:54:30;;;;;;;22.48;18.65;;;31.20;51.20;;;;;;5016161;28;20049;-78
2021/06/04 08:57:12;;;;;;;24.60;21.77;;;31.60;51.30;;;;;;5014735;28;20065;-77
2021/06/04 08:59:39;;;;;;;;;;;31.50;50.00;;;;;;5016385;28;20093;-77
2021/06/04 09:02:12;;;;;;;20.10;17.95;;;31.40;50.40;;;;;;5014739;28;20342;-79
2021/06/04 09:04:55;;;;;;;21.80;19.45;;;31.60;49.60;;;;;;5014355;28;20541;-78
2021/06/04 09:07:36;;;;;;;22.20;20.02;;;31.30;48.90;;;;;;5015394;28;20083;-78
2021/06/04 09:10:34;;;;;;;24.08;21.67;;;31.50;51.40;;;;;;5014720;28;20030;-78
2021/06/04 09:13:08;;;;;;;21.10;18.85;;;31.90;51.90;;;;;;5003273;28;20027;-76
2021/06/04 09:15:36;;;;;;;24.38;21.77;;;32.20;49.60;;;;;;5007403;28;20493;-77
2021/06/04 09:18:15;;;;;;;23.95;21.63;;;31.60;48.70;;;;;;5014486;28;20108;-76
2021/06/04 09:20:55;;;;;;;24.15;21.33;;;31.60;51.30;;;;;;5013404;28;20026;-77
2021/06/04 09:23:42;;;;;;;22.05;19.83;;;31.40;51.10;;;;;;5013207;28;20041;-76
2021/06/04 09:26:11;;;;;;;24.50;22.17;;;31.50;50.30;;;;;;5011778;28;20033;-76
2021/06/04 09:28:46;;;;;;;24.70;22.10;;;31.50;50.90;;;;;;5014251;28;20455;-77
2021/06/04 09:31:34;;;;;;;22.15;19.17;;;31.50;51.30;;;;;;5006365;28;20026;-78
2021/06/04 09:34:24;;;;;;;23.48;21.00;;;32.00;51.40;;;;;;5014719;28;20022;-77
2021/06/04 09:36:52;;;;;;;23.05;20.63;;;32.60;50.30;;;;;;5012670;28;20025;-76
2021/06/04 09:39:37;;;;;;;25.42;22.55;;;33.00;49.00;;;;;;5016764;28;20025;-77
2021/06/04 09:42:23;;;;;;;23.73;21.08;;;32.70;48.10;;;;;;5004509;28;20061;-77
2021/06/04 09:45:11;;;;;;;21.83;19.80;;;32.10;48.40;;;;;;4995625;28;20023;-76
2021/06/04 09:48:00;;;;;;;18.08;15.27;;;32.20;49.10;;;;;;5013539;28;20508;-76
2021/06/04 09:50:47;;;;;;;19.85;17.85;;;32.90;48.10;;;;;;5013416;28;20409;-75
2021/06/04 09:53:20;;;;;;;22.33;20.02;;;33.50;47.50;;;;;;5008966;28;20026;-76
2021/06/04 09:55:49;;;;;;;21.60;19.33;;;33.30;46.30;;;;;;4999510;28;20151;-75
2021/06/04 09:58:20;;;;;;;20.80;18.80;;;32.80;47.70;;;;;;5012512;28;20029;-75
2021/06/04 10:00:46;;;;;;;17.23;15.07;;;33.10;49.40;;;;;;5014618;28;20157;-74
2021/06/04 10:03:21;;;;;;;19.30;17.40;;;33.50;47.90;;;;;;5011643;28;20493;-74
2021/06/04 10:05:48;;;;;;;28.27;25.40;;;33.80;47.10;;;;;;5014105;28;20432;-76
2021/06/04 10:08:29;;;;;;;22.52;20.25;;;33.50;46.40;;;;;;5012222;28;20026;-75
2021/06/04 10:11:18;;;;;;;29.15;26.30;;;33.10;47.40;;;;;;5009170;28;20029;-78
2021/06/04 10:14:05;;;;;;;28.23;25.33;;;32.70;47.80;;;;;;5006072;28;20173;-76
2021/06/04 10:19:17;;;;;;;26.73;23.85;;;31.50;49.30;;;;;;5004025;28;20066;-77
2021/06/04 10:21:43;;;;;;;28.20;25.30;;;31.40;51.00;;;;;;5004656;28;20026;-75
2021/06/04 10:24:29;;;;;;;25.83;22.55;;;31.50;50.70;;;;;;5005361;28;20022;-77
2021/06/04 10:27:01;;;;;;;24.13;21.77;;;31.70;51.10;;;;;;5005703;28;20044;-76
2021/06/04 10:29:28;;;;;;;;;;;31.90;51.40;;;;;;4997547;28;20034;-77
2021/06/04 10:32:06;;;;;;;29.73;26.52;;;32.10;50.30;;;;;;5000287;28;19909;-77
2021/06/04 10:34:41;;;;;;;25.55;22.13;;;32.10;48.30;;;;;;5005402;28;20158;-77
2021/06/04 10:37:17;;;;;;;26.52;21.33;;;32.10;49.90;;;;;;5011029;28;20030;-79
2021/06/04 10:39:55;;;;;;;23.92;21.23;;;32.40;49.70;;;;;;5011030;28;20100;-78
2021/06/04 10:42:29;;;;;;;20.27;18.33;;;32.40;47.70;;;;;;5003517;28;20046;-78
2021/06/04 10:45:19;;;;;;;22.63;20.50;;;32.50;48.20;;;;;;5006419;28;20113;-78
2021/06/04 10:48:03;;;;;;;23.20;20.83;;;32.60;47.30;;;;;;5004540;28;20034;-76
2021/06/04 10:50:33;;;;;;;22.30;18.70;;;32.60;48.00;;;;;;5006009;28;20109;-78
2021/06/04 10:53:20;;;;;;;20.02;18.02;;;32.90;46.50;;;;;;5009085;28;20061;-76
2021/06/04 10:56:02;;;;;;;17.05;15.35;;;32.40;47.60;;;;;;5006134;28;20021;-77
2021/06/04 10:58:31;;;;;;;21.23;18.95;;;32.70;47.90;;;;;;5011803;28;20155;-75
2021/06/04 11:00:59;;;;;;;20.02;17.95;;;33.10;45.70;;;;;;5012468;28;20466;-77
2021/06/04 11:03:50;;;;;;;15.98;14.38;;;32.80;45.70;;;;;;5010276;28;20108;-77
2021/06/04 11:06:24;;;;;;;18.88;17.10;;;32.70;46.50;;;;;;5005660;28;20030;-76
2021/06/04 11:09:01;;;;;;;21.73;19.52;;;33.20;47.10;;;;;;5010882;28;20034;-76
2021/06/04 11:11:45;;;;;;;19.23;17.13;;;33.00;45.00;;;;;;5008297;28;20102;-76
2021/06/04 11:14:33;;;;;;;24.25;21.73;;;32.40;46.10;;;;;;5007850;28;20422;-77
2021/06/04 11:17:21;;;;;;;20.27;16.88;;;31.90;46.70;;;;;;5010930;28;20117;-77
2021/06/04 11:20:08;;;;;;;20.90;18.52;;;30.90;48.00;;;;;;5007542;28;20048;-74
2021/06/04 11:23:04;;;;;;;19.70;17.75;;;30.70;49.50;;;;;;4993992;28;20398;-75
2021/06/04 11:25:54;;;;;;;20.92;18.48;;;30.60;49.60;;;;;;5008199;28;20080;-76
2021/06/04 11:28:33;;;;;;;22.63;20.23;;;31.10;48.50;;;;;;5003569;28;20398;-76
2021/06/04 11:31:01;;;;;;;15.15;13.55;;;31.00;48.30;;;;;;5011658;28;20026;-76
2021/06/04 11:33:31;;;;;;;14.82;12.73;;;30.80;49.90;;;;;;5008695;28;20026;-75
2021/06/04 11:36:20;;;;;;;14.23;11.60;;;31.10;50.40;;;;;;5007744;28;20022;-76
2021/06/04 11:39:17;;;;;;;16.92;15.10;;;31.60;49.10;;;;;;5009073;28;20034;-77
2021/06/04 11:41:47;;;;;;;13.73;12.27;;;31.80;46.50;;;;;;4999544;28;20133;-76
2021/06/04 11:44:42;;;;;;;16.67;14.95;;;32.00;47.40;;;;;;5008535;28;20055;-75
2021/06/04 11:47:13;;;;;;;13.85;12.45;;;32.00;46.40;;;;;;5008484;28;20041;-79
2021/06/04 11:50:09;;;;;;;14.30;13.00;;;32.20;47.60;;;;;;5011198;28;20026;-76
2021/06/04 11:52:44;;;;;;;14.63;12.65;;;32.50;47.20;;;;;;5009396;28;20040;-75
2021/06/04 11:55:34;;;;;;;13.35;11.98;;;32.70;48.50;;;;;;5010389;28;20482;-78
2021/06/04 11:58:18;;;;;;;11.25;10.15;;;32.70;46.90;;;;;;5011731;28;20037;-76
2021/06/04 12:00:52;;;;;;;14.07;12.32;;;32.60;46.80;;;;;;5011264;28;20037;-77
2021/06/04 12:03:24;;;;;;;11.02;9.93;;;32.60;47.00;;;;;;5010310;28;20414;-76
2021/06/04 12:05:57;;;;;;;13.48;12.05;;;32.70;47.90;;;;;;5011746;28;20022;-75
2021/06/04 12:08:25;;;;;;;17.10;15.30;;;33.00;46.20;;;;;;5011536;28;20109;-75
2021/06/04 12:11:00;;;;;;;12.80;11.05;;;32.50;45.50;;;;;;5010394;28;20057;-75
2021/06/04 12:13:41;;;;;;;12.27;10.98;;;32.20;47.30;;;;;;5008672;28;20026;-80
2021/06/04 12:18:47;;;;;;;16.13;14.45;;;32.00;46.00;;;;;;5010541;28;20041;-74
2021/06/04 12:21:39;;;;;;;16.48;13.93;;;31.30;47.60;;;;;;5008135;28;20026;-76
2021/06/04 12:24:19;;;;;;;14.93;13.40;;;31.10;48.30;;;;;;5001515;28;20054;-75
2021/06/04 12:26:48;;;;;;;17.17;15.50;;;31.50;48.40;;;;;;5002055;28;20144;-74
2021/06/04 12:29:37;;;;;;;18.73;16.45;;;31.60;47.50;;;;;;5000412;28;20037;-80
2021/06/04 12:32:10;;;;;;;17.50;15.73;;;31.20;47.60;;;;;;5001905;28;20022;-78
2021/06/04 12:34:36;;;;;;;21.02;18.20;;;30.70;48.60;;;;;;5002057;28;20033;-75
2021/06/04 12:40:09;;;;;;;17.52;15.63;;;30.00;49.00;;;;;;5004311;28;20471;-74
2021/06/04 12:42:42;;;;;;;14.90;12.02;;;30.00;50.00;;;;;;5002180;28;20045;-73
2021/06/04 12:45:26;;;;;;;22.40;20.10;;;30.30;50.10;;;;;;5003013;28;20045;-74
2021/06/04 12:47:57;;;;;;;21.63;17.40;;;30.30;48.50;;;;;;5004454;28;20060;-73
2021/06/04 12:50:31;;;;;;;20.08;17.48;;;30.00;49.90;;;;;;5009253;28;20033;-74
2021/06/04 12:53:12;;;;;;;19.88;17.77;;;29.80;49.80;;;;;;5011833;28;20026;-73
2021/06/04 12:55:41;;;;;;;15.98;14.30;;;29.70;49.80;;;;;;5010026;28;20049;-73
2021/06/04 12:58:41;;;;;;;18.40;16.50;;;29.40;50.50;;;;;;5009309;28;20017;-74
2021/06/04 13:01:37;;;;;;;17.42;15.50;;;29.30;50.60;;;;;;5009547;28;20064;-74
2021/06/04 13:04:26;;;;;;;15.43;13.80;;;29.70;50.40;;;;;;5011016;28;20041;-73